Time;durP1;ratioP1;P1;durP2;ratioP2;P2;SDS_P1;SDS_P2;PMS_P1;PMS_P2;Temp;Humidity;BMP_temperature;BMP_pressure;BME280_temperature;BME280_humidity;BME280_pressure;Samples;Min_cycle;Max_cycle;Signal;HPM_P1;HPM_P2
2021/11/21 00:02:28;;;;;;;33.95;23.10;;;;;;;7.56;80.58;99891.13;4975294;28;20050;-63
2021/11/21 00:05:03;;;;;;;34.33;22.83;;;;;;;7.54;80.57;99884.19;4974081;28;20035;-63
2021/11/21 00:07:42;;;;;;;37.78;24.38;;;;;;;7.56;80.26;99887.69;4974783;28;20042;-63
2021/11/21 00:10:14;;;;;;;34.13;24.05;;;;;;;7.56;80.44;99874.78;4975224;28;20031;-62
2021/11/21 00:12:50;;;;;;;37.13;23.13;;;;;;;7.58;80.33;99881.72;4974090;28;20043;-63
2021/11/21 00:15:26;;;;;;;35.90;23.45;;;;;;;7.59;80.55;99873.16;4973868;28;20490;-62
2021/11/21 00:18:05;;;;;;;34.40;23.40;;;;;;;7.59;80.38;99875.72;4974195;28;20097;-62
2021/11/21 00:20:44;;;;;;;36.20;24.80;;;;;;;7.60;80.16;99874.91;4958108;28;20046;-62
2021/11/21 00:23:22;;;;;;;40.03;25.60;;;;;;;7.60;80.42;99871.47;4957582;28;20564;-62
2021/11/21 00:26:01;;;;;;;38.90;25.55;;;;;;;7.59;80.04;99867.13;4973651;28;20031;-63
2021/11/21 00:28:35;;;;;;;41.05;27.10;;;;;;;7.58;80.61;99855.94;4974154;28;20482;-63
2021/11/21 00:31:09;;;;;;;40.95;26.55;;;;;;;7.60;80.36;99853.41;4974667;28;20034;-63
2021/11/21 00:33:37;;;;;;;37.90;25.45;;;;;;;7.60;80.54;99856.84;4975060;28;20050;-63
2021/11/21 00:36:11;;;;;;;42.72;27.50;;;;;;;7.60;80.15;99864.56;4973589;28;20031;-62
2021/11/21 00:38:46;;;;;;;41.08;26.58;;;;;;;7.61;80.14;99866.31;4975060;28;20451;-62
2021/11/21 00:41:22;;;;;;;44.13;28.50;;;;;;;7.62;80.61;99865.50;4973753;28;20089;-63
2021/11/21 00:43:56;;;;;;;44.22;29.00;;;;;;;7.64;80.61;99859.50;4973970;28;20126;-62
2021/11/21 00:46:34;;;;;;;46.55;29.90;;;;;;;7.62;80.42;99851.75;4958330;28;20042;-63
2021/11/21 00:49:15;;;;;;;41.70;27.23;;;;;;;7.63;80.42;99853.47;4973635;28;20070;-63
2021/11/21 00:51:54;;;;;;;43.42;29.65;;;;;;;7.64;80.08;99851.75;4973824;28;20039;-63
2021/11/21 00:57:17;;;;;;;40.65;25.73;;;;;;;7.63;80.74;99843.13;4976769;28;20039;-62
2021/11/21 00:59:54;;;;;;;41.72;27.42;;;;;;;7.62;80.23;99837.13;4977313;28;20042;-62
2021/11/21 01:02:27;;;;;;;37.25;24.98;;;;;;;7.64;80.61;99841.44;4977111;28;20058;-62
2021/11/21 01:05:06;;;;;;;37.72;25.75;;;;;;;7.63;80.15;99832.81;4961495;28;20126;-62
2021/11/21 01:07:45;;;;;;;38.25;24.08;;;;;;;7.63;80.33;99832.81;4977289;28;20039;-62
2021/11/21 01:10:23;;;;;;;43.25;26.25;;;;;;;7.64;80.32;99833.72;4961461;28;20046;-62
2021/11/21 01:13:01;;;;;;;40.25;25.15;;;;;;;7.62;80.56;99821.66;4977585;28;20483;-62
2021/11/21 01:15:39;;;;;;;36.13;24.40;;;;;;;7.63;80.03;99825.09;4977264;28;20077;-62
2021/11/21 01:18:13;;;;;;;34.58;24.30;;;;;;;7.62;80.39;99816.50;4961312;28;20130;-63
2021/11/21 01:20:48;;;;;;;38.90;24.80;;;;;;;7.61;80.58;99813.88;4977156;28;20027;-63
2021/11/21 01:23:20;;;;;;;36.53;24.27;;;;;;;7.60;80.30;99818.16;4977107;28;20078;-63
2021/11/21 01:25:57;;;;;;;36.38;24.10;;;;;;;7.60;80.29;99820.72;4978384;28;20045;-63
2021/11/21 01:28:30;;;;;;;34.08;22.55;;;;;;;7.61;80.25;99809.59;4976904;28;20498;-63
2021/11/21 01:31:09;;;;;;;34.70;23.17;;;;;;;7.61;80.24;99809.59;4977183;28;20043;-63
2021/11/21 01:33:41;;;;;;;32.38;21.92;;;;;;;7.61;80.24;99814.75;4977088;28;20426;-63
2021/11/21 01:36:20;;;;;;;31.73;22.20;;;;;;;7.61;80.26;99807.00;4961152;28;20070;-62
2021/11/21 01:38:59;;;;;;;33.67;21.77;;;;;;;7.61;80.20;99811.31;4978187;28;20038;-62
2021/11/21 01:41:36;;;;;;;29.35;20.65;;;;;;;7.61;80.14;99808.72;4960893;28;20051;-62
2021/11/21 01:44:12;;;;;;;31.25;19.98;;;;;;;7.60;80.45;99805.25;4977158;28;20043;-63
2021/11/21 01:46:52;;;;;;;33.60;20.55;;;;;;;7.60;80.20;99801.81;4976789;28;20402;-62
2021/11/21 01:49:25;;;;;;;28.42;19.30;;;;;;;7.60;80.38;99792.34;4977891;28;20031;-63
2021/11/21 01:51:56;;;;;;;27.23;18.52;;;;;;;7.59;80.50;99792.34;4961076;28;20096;-62
2021/11/21 01:54:30;;;;;;;27.92;18.77;;;;;;;7.58;79.99;99780.28;4977863;28;20046;-63
2021/11/21 01:57:05;;;;;;;25.13;17.88;;;;;;;7.57;80.21;99779.38;4977754;28;20096;-63
2021/11/21 01:59:42;;;;;;;28.90;19.13;;;;;;;7.55;80.16;99781.06;4976323;28;20031;-63
2021/11/21 02:02:16;;;;;;;26.83;18.17;;;;;;;7.54;80.09;99775.88;4976130;28;20055;-63
2021/11/21 02:04:49;;;;;;;27.08;17.83;;;;;;;7.54;80.24;99776.75;4977672;28;20042;-61
2021/11/21 02:07:23;;;;;;;28.98;18.58;;;;;;;7.54;80.55;99775.88;4960114;28;20093;-62
2021/11/21 02:10:05;;;;;;;24.23;16.55;;;;;;;7.52;80.43;99783.59;4976119;28;20035;-63
2021/11/21 02:12:41;;;;;;;26.63;18.23;;;;;;;7.53;80.37;99776.69;4959897;28;20038;-62
2021/11/21 02:15:20;;;;;;;24.25;17.15;;;;;;;7.54;80.19;99771.59;4977519;28;20034;-62
2021/11/21 02:18:00;;;;;;;26.92;16.75;;;;;;;7.52;80.47;99767.22;4977422;28;20115;-62
2021/11/21 02:20:52;;;;;;;28.10;18.02;;;;;;;7.53;80.07;99768.97;4977485;28;20039;-62
2021/11/21 02:23:26;;;;;;;26.38;16.60;;;;;;;7.53;80.31;99764.69;4977389;28;20042;-63
2021/11/21 02:26:02;;;;;;;28.52;17.38;;;;;;;7.53;80.43;99764.69;4977295;28;20034;-63
2021/11/21 02:28:42;;;;;;;24.65;16.52;;;;;;;7.54;80.58;99769.03;4976031;28;20125;-63
2021/11/21 02:31:20;;;;;;;26.45;16.50;;;;;;;7.55;80.38;99763.00;4976725;28;20035;-63
2021/11/21 02:33:57;;;;;;;25.40;17.08;;;;;;;7.53;80.13;99763.81;4977183;28;20125;-62
2021/11/21 02:36:33;;;;;;;25.42;16.33;;;;;;;7.53;80.12;99756.06;4959698;28;20062;-63
2021/11/21 02:39:12;;;;;;;20.42;14.88;;;;;;;7.53;80.05;99756.97;4975925;28;20035;-63
2021/11/21 02:41:44;;;;;;;22.33;15.68;;;;;;;7.53;80.30;99749.22;4975552;28;20078;-63
2021/11/21 02:44:27;;;;;;;21.42;15.23;;;;;;;7.53;80.47;99751.81;4975721;28;20047;-63
2021/11/21 02:46:55;;;;;;;23.77;15.27;;;;;;;7.52;80.44;99739.75;4975572;28;20039;-62
2021/11/21 02:49:34;;;;;;;24.25;16.05;;;;;;;7.51;80.47;99740.56;4975568;28;20119;-63
2021/11/21 02:52:11;;;;;;;21.83;15.18;;;;;;;7.51;80.30;99735.41;4975627;28;20447;-62
2021/11/21 02:55:01;;;;;;;20.92;14.05;;;;;;;7.51;80.31;99734.53;4975556;28;20450;-63
2021/11/21 02:57:43;;;;;;;19.63;14.35;;;;;;;7.51;80.30;99727.69;4960185;28;20046;-63
2021/11/21 03:00:23;;;;;;;20.88;13.70;;;;;;;7.49;80.22;99731.03;4976449;28;20042;-62
2021/11/21 03:03:02;;;;;;;22.00;15.52;;;;;;;7.50;80.18;99735.34;4976004;28;20050;-62
2021/11/21 03:05:41;;;;;;;24.27;14.05;;;;;;;7.48;80.50;99730.19;4975237;28;20522;-63
2021/11/21 03:08:12;;;;;;;19.35;13.27;;;;;;;7.49;80.28;99729.34;4958941;28;20129;-62
2021/11/21 03:10:46;;;;;;;22.63;13.77;;;;;;;7.49;80.31;99724.19;4975459;28;20161;-63
2021/11/21 03:13:22;;;;;;;20.27;14.48;;;;;;;7.48;80.16;99719.88;4975331;28;20030;-61
2021/11/21 03:15:56;;;;;;;22.05;14.40;;;;;;;7.48;80.60;99714.72;4975226;28;20039;-63
2021/11/21 03:18:35;;;;;;;18.70;13.35;;;;;;;7.48;80.50;99712.13;4976073;28;20042;-62
2021/11/21 03:21:12;;;;;;;18.98;13.25;;;;;;;7.49;80.08;99716.44;4976024;28;20039;-63
2021/11/21 03:23:52;;;;;;;23.77;14.32;;;;;;;7.47;80.50;99713.81;4958904;28;20042;-63
2021/11/21 03:26:23;;;;;;;20.58;14.00;;;;;;;7.47;80.25;99707.81;4974685;28;20035;-63
2021/11/21 03:29:05;;;;;;;21.63;14.18;;;;;;;7.45;80.22;99710.34;4975036;28;20035;-63
2021/11/21 03:31:37;;;;;;;21.80;13.95;;;;;;;7.47;80.09;99712.97;4974862;28;20114;-63
2021/11/21 03:34:14;;;;;;;21.52;14.02;;;;;;;7.46;80.49;99706.06;4958413;28;20039;-63
2021/11/21 03:36:53;;;;;;;20.73;13.10;;;;;;;7.46;80.13;99700.91;4974410;28;20122;-64
2021/11/21 03:39:34;;;;;;;21.70;13.52;;;;;;;7.45;80.54;99699.16;4975936;28;20034;-63
2021/11/21 03:42:14;;;;;;;25.33;14.82;;;;;;;7.43;80.26;99698.25;4958637;28;20109;-63
2021/11/21 03:44:48;;;;;;;24.20;13.68;;;;;;;7.43;80.49;99693.97;4975005;28;20046;-63
2021/11/21 03:47:21;;;;;;;22.75;13.73;;;;;;;7.45;80.12;99691.44;4975841;28;20094;-63
2021/11/21 03:50:01;;;;;;;21.50;14.73;;;;;;;7.43;80.61;99688.81;4974381;28;20031;-63
2021/11/21 03:52:37;;;;;;;22.10;13.32;;;;;;;7.44;80.38;99682.84;4958639;28;20042;-62
2021/11/21 03:55:14;;;;;;;25.33;15.55;;;;;;;7.44;80.47;99680.25;4974560;28;20490;-63
2021/11/21 03:57:48;;;;;;;21.40;14.77;;;;;;;7.43;80.36;99677.63;4958207;28;20051;-62
2021/11/21 04:00:26;;;;;;;20.55;14.05;;;;;;;7.43;80.24;99670.78;4975540;28;20038;-62
2021/11/21 04:03:05;;;;;;;23.00;14.57;;;;;;;7.42;80.21;99676.75;4974047;28;20047;-62
2021/11/21 04:05:44;;;;;;;21.02;14.07;;;;;;;7.40;80.40;99668.13;4974521;28;20094;-63
2021/11/21 04:08:23;;;;;;;23.50;14.65;;;;;;;7.42;80.77;99668.13;4975585;28;20039;-63
2021/11/21 04:10:54;;;;;;;23.60;15.55;;;;;;;7.41;80.08;99671.56;4974150;28;20042;-63
2021/11/21 04:13:36;;;;;;;24.85;15.88;;;;;;;7.41;80.47;99676.72;4974170;28;20121;-63
2021/11/21 04:16:12;;;;;;;23.20;14.90;;;;;;;7.42;80.16;99669.03;4973643;28;20101;-62
2021/11/21 04:18:43;;;;;;;23.75;15.05;;;;;;;7.41;80.18;99666.41;4958265;28;20034;-62
2021/11/21 04:21:17;;;;;;;23.10;15.60;;;;;;;7.41;80.21;99664.72;4958058;28;20045;-62
2021/11/21 04:23:57;;;;;;;24.20;16.15;;;;;;;7.40;80.28;99660.38;4973842;28;20030;-63
2021/11/21 04:28:55;;;;;;;24.35;14.90;;;;;;;7.40;80.08;99659.50;5132138;27;20338;-62
2021/11/21 04:31:20;;;;;;;21.25;14.98;;;;;;;7.40;80.41;99652.66;5132087;28;20099;-62
2021/11/21 04:33:56;;;;;;;24.60;16.13;;;;;;;7.40;80.61;99644.03;5131989;28;20043;-63
2021/11/21 04:36:34;;;;;;;28.60;17.75;;;;;;;7.41;80.43;99641.50;5113704;28;20047;-62
2021/11/21 04:39:11;;;;;;;25.77;16.25;;;;;;;7.38;80.31;99641.44;5113957;28;20035;-63
2021/11/21 04:41:47;;;;;;;25.85;16.63;;;;;;;7.40;80.42;99626.88;5131731;28;20035;-63
2021/11/21 04:44:26;;;;;;;23.50;16.38;;;;;;;7.39;80.25;99619.97;5131703;28;20063;-62
2021/11/21 04:46:59;;;;;;;26.90;17.30;;;;;;;7.38;80.51;99619.94;5131607;28;20039;-62
2021/11/21 04:49:32;;;;;;;25.98;16.38;;;;;;;7.37;80.26;99619.06;5113662;28;20478;-63
2021/11/21 04:52:04;;;;;;;24.95;17.33;;;;;;;7.38;80.75;99614.78;5096103;28;20051;-63
2021/11/21 04:54:40;;;;;;;;;;;;;;;7.34;80.30;99588.03;5113402;28;20031;-63
2021/11/21 04:57:19;;;;;;;24.55;16.27;;;;;;;7.32;80.21;99603.50;5113534;28;19960;-63
2021/11/21 04:59:53;;;;;;;23.63;16.00;;;;;;;7.35;80.61;99609.56;5131283;28;20039;-63
2021/11/21 05:02:29;;;;;;;25.02;16.45;;;;;;;7.32;80.54;99606.06;5113678;28;20496;-63
2021/11/21 05:05:08;;;;;;;25.13;16.08;;;;;;;7.36;80.35;99619.03;5096092;28;20043;-63
2021/11/21 05:07:44;;;;;;;28.23;18.38;;;;;;;7.35;80.12;99617.28;5131157;28;20035;-64
2021/11/21 05:10:23;;;;;;;26.20;17.63;;;;;;;7.36;80.19;99616.47;5131409;28;20039;-63
2021/11/21 05:13:02;;;;;;;24.08;15.93;;;;;;;7.37;80.19;99620.78;5131514;28;20031;-63
2021/11/21 05:15:40;;;;;;;25.23;16.45;;;;;;;7.36;80.45;99621.63;5131108;28;20063;-63
2021/11/21 05:18:16;;;;;;;24.05;16.73;;;;;;;7.36;80.31;99611.31;5112762;28;20395;-63
2021/11/21 05:20:48;;;;;;;23.95;16.80;;;;;;;7.35;80.58;99613.00;5131037;28;20542;-63
2021/11/21 05:23:30;;;;;;;24.60;16.85;;;;;;;7.37;80.29;99613.03;5112324;28;20036;-63
2021/11/21 05:26:03;;;;;;;25.20;16.52;;;;;;;7.37;80.28;99616.47;5130746;28;20486;-63
2021/11/21 05:28:36;;;;;;;23.55;17.45;;;;;;;7.37;80.29;99605.31;5095118;28;20082;-63
2021/11/21 05:31:10;;;;;;;24.42;16.45;;;;;;;7.37;80.60;99597.56;5112773;28;20035;-63
2021/11/21 05:33:43;;;;;;;27.23;17.33;;;;;;;7.37;80.33;99600.16;5095850;28;20043;-63
2021/11/21 05:36:14;;;;;;;22.55;16.58;;;;;;;7.36;80.32;99599.25;5112749;28;20039;-62
2021/11/21 05:38:51;;;;;;;;;;;;;;;7.34;80.28;99584.63;5107256;28;20495;-62
2021/11/21 05:41:28;;;;;;;24.60;17.30;;;;;;;7.36;80.29;99596.69;5115577;28;19958;-63
2021/11/21 05:43:58;;;;;;;23.05;15.98;;;;;;;7.36;80.28;99588.09;5116832;28;20043;-63
2021/11/21 05:46:37;;;;;;;25.58;17.75;;;;;;;7.36;80.62;99588.09;5098940;28;20067;-62
2021/11/21 05:49:22;;;;;;;25.05;17.52;;;;;;;7.38;80.51;99589.00;5098718;28;20040;-63
2021/11/21 05:51:56;;;;;;;21.83;17.15;;;;;;;7.36;80.29;99586.38;5116619;28;20042;-63
2021/11/21 05:54:30;;;;;;;25.35;17.00;;;;;;;7.36;80.36;99588.09;5116694;28;20046;-63
2021/11/21 05:57:03;;;;;;;25.67;17.48;;;;;;;7.36;80.23;99578.63;5132755;27;20035;-63
2021/11/21 05:59:41;;;;;;;22.38;15.73;;;;;;;7.36;80.46;99580.38;5116555;28;20487;-62
2021/11/21 06:02:20;;;;;;;23.02;16.40;;;;;;;7.35;80.50;99573.47;5098269;28;20364;-62
2021/11/21 06:04:56;;;;;;;25.45;17.08;;;;;;;7.35;80.25;99581.19;5116471;28;20039;-63
2021/11/21 06:07:32;;;;;;;28.02;17.75;;;;;;;7.35;80.34;99576.03;5116663;28;20077;-62
2021/11/21 06:10:10;;;;;;;25.67;17.25;;;;;;;7.34;80.24;99566.56;5116482;28;20039;-62
2021/11/21 06:12:50;;;;;;;27.20;18.13;;;;;;;7.34;80.15;99567.41;5080589;28;20036;-63
2021/11/21 06:15:27;;;;;;;25.08;17.50;;;;;;;7.34;80.81;99569.16;5097629;28;20035;-63
2021/11/21 06:17:59;;;;;;;24.55;16.98;;;;;;;7.34;80.50;99567.41;5098083;28;20051;-63
2021/11/21 06:20:32;;;;;;;25.73;18.27;;;;;;;7.35;80.69;99568.31;5116299;28;20039;-63
2021/11/21 06:23:11;;;;;;;27.27;18.08;;;;;;;7.34;80.72;99564.84;5098116;28;20507;-63
2021/11/21 06:25:50;;;;;;;28.13;18.35;;;;;;;7.33;80.31;99565.69;5097757;28;20035;-63
2021/11/21 06:28:28;;;;;;;28.95;17.73;;;;;;;7.33;80.48;99552.78;5115562;28;20044;-63
2021/11/21 06:31:07;;;;;;;27.48;17.95;;;;;;;7.32;80.46;99551.94;5115984;28;20118;-62
2021/11/21 06:33:46;;;;;;;26.27;17.67;;;;;;;7.32;80.39;99551.94;5115833;28;20058;-64
2021/11/21 06:36:19;;;;;;;25.98;17.52;;;;;;;7.31;80.39;99549.34;5116095;28;20067;-63
2021/11/21 06:39:04;;;;;;;29.52;18.65;;;;;;;7.30;80.37;99539.88;5097922;28;20035;-63
2021/11/21 06:41:37;;;;;;;27.33;17.30;;;;;;;7.30;80.34;99539.88;5115763;28;20039;-63
2021/11/21 06:44:11;;;;;;;24.60;17.50;;;;;;;7.30;80.15;99543.28;5097512;28;20510;-63
2021/11/21 06:46:47;;;;;;;27.98;18.30;;;;;;;7.31;80.60;99542.47;5115815;28;20092;-64
2021/11/21 06:49:20;;;;;;;25.65;17.40;;;;;;;7.30;80.59;99545.00;5097592;28;20044;-62
2021/11/21 06:51:59;;;;;;;26.42;19.23;;;;;;;7.29;80.17;99546.72;5097303;28;20505;-63
2021/11/21 06:54:30;;;;;;;24.10;16.83;;;;;;;7.29;80.63;99544.13;5115739;28;20395;-63
2021/11/21 06:57:06;;;;;;;30.15;18.75;;;;;;;7.30;80.44;99545.00;5115640;28;20028;-62
2021/11/21 06:59:37;;;;;;;25.08;16.70;;;;;;;7.30;80.72;99545.88;5115980;28;20074;-63
2021/11/21 07:02:07;;;;;;;29.15;18.13;;;;;;;7.32;80.39;99538.16;5115423;28;20028;-64
2021/11/21 07:04:44;;;;;;;28.23;19.40;;;;;;;7.31;80.40;99546.75;5097149;28;20065;-64
2021/11/21 07:07:18;;;;;;;26.17;18.27;;;;;;;7.30;80.55;99542.44;5115073;28;20023;-64
2021/11/21 07:09:49;;;;;;;29.95;19.23;;;;;;;7.31;80.28;99542.47;5115435;28;20086;-64
2021/11/21 07:12:20;;;;;;;27.70;18.83;;;;;;;7.30;80.54;99545.88;5079812;28;20082;-63
2021/11/21 07:14:54;;;;;;;30.30;20.80;;;;;;;7.32;80.62;99543.31;5079813;28;20126;-63
2021/11/21 07:17:30;;;;;;;29.25;19.70;;;;;;;7.32;80.29;99539.03;5096941;28;20027;-63
2021/11/21 07:19:56;;;;;;;28.75;18.33;;;;;;;7.32;80.52;99545.88;5115203;28;20036;-62
2021/11/21 07:22:24;;;;;;;27.50;19.15;;;;;;;7.32;80.34;99544.19;5115288;28;20080;-63
2021/11/21 07:24:55;;;;;;;32.97;21.05;;;;;;;7.31;80.39;99550.19;5115260;28;20127;-62
2021/11/21 07:27:23;;;;;;;28.60;18.40;;;;;;;7.34;80.87;99551.09;5093292;28;20048;-63
2021/11/21 07:29:54;;;;;;;28.48;19.45;;;;;;;7.32;80.59;99538.16;5094405;28;20077;-63
2021/11/21 07:32:28;;;;;;;31.10;19.17;;;;;;;7.32;80.73;99549.34;5076237;28;20097;-63
2021/11/21 07:35:06;;;;;;;31.60;20.23;;;;;;;7.32;80.79;99543.31;5076423;28;20047;-62
2021/11/21 07:37:40;;;;;;;29.88;19.98;;;;;;;7.32;80.44;99554.50;5076415;28;20044;-63
2021/11/21 07:40:10;;;;;;;34.58;20.95;;;;;;;7.33;80.48;99545.06;5076271;28;20051;-63
2021/11/21 07:42:41;;;;;;;30.98;20.42;;;;;;;7.32;80.69;99548.47;5094119;28;20039;-63
2021/11/21 07:45:13;;;;;;;35.30;21.40;;;;;;;7.32;80.22;99551.03;5094414;28;20379;-62
2021/11/21 07:47:45;;;;;;;31.75;19.75;;;;;;;7.32;80.51;99549.34;5093069;28;20119;-62
2021/11/21 07:50:15;;;;;;;35.88;22.83;;;;;;;7.33;80.76;99545.06;5093075;28;20122;-62
2021/11/21 07:52:47;;;;;;;35.05;21.33;;;;;;;7.34;80.32;99548.53;5076078;28;20036;-64
2021/11/21 07:55:19;;;;;;;34.95;20.40;;;;;;;7.36;80.61;99536.53;5126780;27;20047;-62
2021/11/21 07:57:53;;;;;;;31.95;19.95;;;;;;;7.35;80.35;99538.22;5076333;28;20395;-63
2021/11/21 08:00:18;;;;;;;37.13;23.08;;;;;;;7.36;80.68;99536.53;5092983;28;20036;-63
2021/11/21 08:02:52;;;;;;;29.75;20.15;;;;;;;7.36;80.41;99527.06;5092220;28;20399;-63
2021/11/21 08:05:19;;;;;;;33.92;21.05;;;;;;;7.36;80.87;99539.13;5093965;28;20036;-63
2021/11/21 08:07:50;;;;;;;30.08;20.27;;;;;;;7.36;80.37;99539.97;5093696;28;20032;-63
2021/11/21 08:10:21;;;;;;;34.63;21.15;;;;;;;7.36;80.54;99542.53;5093802;28;20047;-63
2021/11/21 08:12:47;;;;;;;31.60;21.73;;;;;;;7.37;80.84;99553.75;5126275;27;20574;-63
2021/11/21 08:15:18;;;;;;;32.60;19.73;;;;;;;7.38;80.74;99563.22;5092383;28;20063;-62
2021/11/21 08:17:44;;;;;;;30.30;20.95;;;;;;;7.39;80.57;99563.25;5093825;28;20127;-63
2021/11/21 08:20:13;;;;;;;33.92;21.05;;;;;;;7.39;80.58;99565.81;5093641;28;20044;-62
2021/11/21 08:22:44;;;;;;;29.63;19.58;;;;;;;7.40;80.46;99562.41;5092488;28;20071;-63
2021/11/21 08:25:17;;;;;;;29.52;18.50;;;;;;;7.40;80.63;99562.41;5092679;28;20126;-62
2021/11/21 08:27:42;;;;;;;27.15;18.25;;;;;;;7.39;80.71;99555.50;5092370;28;20074;-63
2021/11/21 08:30:18;;;;;;;28.40;19.00;;;;;;;7.41;80.79;99560.69;5092690;28;20482;-63
2021/11/21 08:32:50;;;;;;;26.05;18.23;;;;;;;7.41;80.73;99551.25;5093574;28;20127;-64
2021/11/21 08:35:21;;;;;;;26.98;18.40;;;;;;;7.41;81.07;99559.00;5092761;28;20040;-62
2021/11/21 08:37:58;;;;;;;26.20;18.00;;;;;;;7.42;80.72;99562.44;5075265;28;20605;-63
2021/11/21 08:40:27;;;;;;;28.67;19.40;;;;;;;7.41;80.48;99553.84;5093941;28;20059;-63
2021/11/21 08:43:03;;;;;;;27.00;17.45;;;;;;;7.42;80.67;99559.84;5092383;28;20047;-63
2021/11/21 08:45:34;;;;;;;26.20;17.55;;;;;;;7.42;80.54;99565.00;5093402;28;20126;-63
2021/11/21 08:48:10;;;;;;;23.25;15.85;;;;;;;7.42;80.95;99567.59;5125093;28;20040;-63
2021/11/21 08:50:41;;;;;;;23.50;16.65;;;;;;;7.42;81.04;99565.91;5075777;28;20036;-62
2021/11/21 08:53:12;;;;;;;23.58;16.48;;;;;;;7.44;80.58;99565.91;5075610;28;20032;-63
2021/11/21 08:55:49;;;;;;;23.83;16.73;;;;;;;7.43;80.92;99565.06;5075382;28;20072;-62
2021/11/21 08:58:26;;;;;;;21.33;15.45;;;;;;;7.44;80.87;99578.81;5092409;28;20506;-62
2021/11/21 09:01:03;;;;;;;23.35;15.38;;;;;;;7.45;80.76;99573.69;5092530;28;20560;-63
2021/11/21 09:03:40;;;;;;;22.00;15.60;;;;;;;7.45;80.57;99580.53;5092255;28;20036;-63
2021/11/21 09:06:18;;;;;;;19.38;14.00;;;;;;;7.46;80.82;99572.88;5092160;28;20040;-63
2021/11/21 09:08:55;;;;;;;22.00;15.57;;;;;;;7.44;80.77;99578.81;5109531;28;20040;-63
2021/11/21 09:11:35;;;;;;;19.85;13.70;;;;;;;7.46;80.53;99571.97;5091869;28;20494;-63
2021/11/21 09:14:15;;;;;;;23.33;13.30;;;;;;;7.46;81.01;99571.97;5094540;28;20047;-62
2021/11/21 09:16:53;;;;;;;18.20;12.73;;;;;;;7.45;80.54;99568.53;5095680;28;20547;-63
2021/11/21 09:19:32;;;;;;;19.45;13.40;;;;;;;7.46;81.05;99569.41;5129692;27;20491;-62
2021/11/21 09:22:06;;;;;;;17.17;12.80;;;;;;;7.47;80.59;99571.13;5079077;28;20084;-64
2021/11/21 09:24:43;;;;;;;;;;;;;;;7.47;80.57;99573.72;5079266;28;20417;-63
2021/11/21 09:27:17;;;;;;;17.27;13.07;;;;;;;7.47;80.57;99576.28;5095337;28;20006;-63
2021/11/21 09:29:57;;;;;;;16.35;12.43;;;;;;;7.48;80.67;99572.88;5078844;28;20028;-62
2021/11/21 09:32:28;;;;;;;16.45;11.90;;;;;;;7.49;81.18;99558.25;5096042;28;20036;-62
2021/11/21 09:35:06;;;;;;;15.43;11.82;;;;;;;7.49;80.75;99566.88;5078410;28;20090;-63
2021/11/21 09:37:43;;;;;;;15.52;10.52;;;;;;;7.48;80.77;99578.03;5096532;28;20426;-64
2021/11/21 09:40:23;;;;;;;16.38;11.50;;;;;;;7.50;80.69;99586.69;5095063;28;20032;-63
2021/11/21 09:43:00;;;;;;;16.33;11.07;;;;;;;7.50;80.53;99585.78;5129793;27;20046;-62
2021/11/21 09:45:31;;;;;;;18.55;12.43;;;;;;;7.51;80.64;99574.66;5078206;28;20118;-63
2021/11/21 09:48:08;;;;;;;19.15;12.23;;;;;;;7.50;81.05;99578.94;5078126;28;20489;-63
2021/11/21 09:50:40;;;;;;;15.00;10.55;;;;;;;7.51;80.50;99580.69;5096646;28;20036;-62
2021/11/21 09:53:13;;;;;;;19.48;11.32;;;;;;;7.52;80.73;99582.44;5096152;28;20051;-62
2021/11/21 09:55:44;;;;;;;14.50;11.23;;;;;;;7.52;80.84;99582.44;5078538;28;20031;-62
2021/11/21 09:58:21;;;;;;;15.13;10.90;;;;;;;7.51;80.67;99588.44;5078315;28;20059;-62
2021/11/21 10:00:56;;;;;;;15.05;10.88;;;;;;;7.53;80.86;99591.03;5094977;28;20040;-63
2021/11/21 10:03:46;;;;;;;15.90;11.43;;;;;;;7.53;80.89;99591.03;5096332;28;20054;-63
2021/11/21 10:06:49;;;;;;;15.57;11.48;;;;;;;7.53;80.62;99591.03;5094808;28;20448;-63
2021/11/21 10:09:19;;;;;;;15.40;9.80;;;;;;;7.52;80.74;99600.47;5077792;28;20495;-63
2021/11/21 10:12:01;;;;;;;18.00;12.32;;;;;;;7.50;80.84;99589.25;5095757;28;20483;-63
2021/11/21 10:14:58;;;;;;;18.52;11.32;;;;;;;7.50;80.77;99593.53;5078159;28;20055;-63
2021/11/21 10:17:28;;;;;;;20.80;12.60;;;;;;;7.51;81.17;99595.28;5077636;28;20522;-63
2021/11/21 10:20:20;;;;;;;16.10;11.32;;;;;;;7.51;80.89;99591.00;5094707;28;20068;-63
2021/11/21 10:22:57;;;;;;;16.52;11.63;;;;;;;7.50;81.14;99584.09;5077610;28;20039;-63
2021/11/21 10:25:32;;;;;;;19.55;12.30;;;;;;;7.51;81.13;99583.28;5094815;28;20039;-62
2021/11/21 10:28:14;;;;;;;16.17;12.00;;;;;;;7.52;81.01;99585.00;5093863;28;20211;-63
2021/11/21 10:31:10;;;;;;;15.50;11.30;;;;;;;7.52;80.91;99582.44;5077310;28;20032;-63
2021/11/21 10:33:50;;;;;;;16.90;11.50;;;;;;;7.50;81.16;99589.25;5094533;28;20429;-62
2021/11/21 10:36:25;;;;;;;16.95;10.98;;;;;;;7.51;80.98;99587.53;5094211;28;20043;-63
2021/11/21 10:39:03;;;;;;;17.60;12.23;;;;;;;7.50;81.15;99586.69;5077085;28;20039;-63
2021/11/21 10:41:40;;;;;;;17.40;12.73;;;;;;;7.51;80.89;99591.00;5111716;28;20116;-63
2021/11/21 10:44:20;;;;;;;18.80;12.43;;;;;;;7.50;81.25;99588.38;5095720;28;20036;-63
2021/11/21 10:46:56;;;;;;;17.92;12.52;;;;;;;7.49;80.92;99586.63;5077035;28;20108;-62
2021/11/21 10:49:39;;;;;;;17.08;10.85;;;;;;;7.50;81.17;99580.63;5077246;28;20044;-63
2021/11/21 10:52:06;;;;;;;18.00;11.00;;;;;;;7.51;80.97;99580.69;5076991;28;20046;-62
2021/11/21 10:54:50;;;;;;;17.85;12.43;;;;;;;7.50;81.23;99586.69;5093951;28;20061;-63
2021/11/21 10:57:33;;;;;;;15.93;10.85;;;;;;;7.50;81.36;99584.09;5093836;28;20119;-63
2021/11/21 11:00:17;;;;;;;18.80;11.60;;;;;;;7.51;81.31;99590.13;5095231;28;20048;-63
2021/11/21 11:02:48;;;;;;;16.80;11.25;;;;;;;7.52;81.19;99584.13;5095125;28;20067;-63
2021/11/21 11:05:33;;;;;;;18.33;11.82;;;;;;;7.53;81.08;99589.34;5093609;28;20108;-63
2021/11/21 11:08:15;;;;;;;16.85;10.95;;;;;;;7.53;80.73;99589.34;5093544;28;20488;-63
2021/11/21 11:10:51;;;;;;;15.77;10.65;;;;;;;7.54;81.20;99591.06;5095098;28;20054;-63
2021/11/21 11:13:33;;;;;;;18.55;11.40;;;;;;;7.53;80.97;99581.59;5094745;28;20039;-62
2021/11/21 11:16:07;;;;;;;20.02;12.05;;;;;;;7.54;81.24;99574.72;5094680;28;20032;-63
2021/11/21 11:18:41;;;;;;;17.80;11.38;;;;;;;7.53;81.22;99581.59;5110222;28;20028;-63
2021/11/21 11:21:19;;;;;;;16.85;10.38;;;;;;;7.53;81.11;99581.59;5077170;28;20115;-63
2021/11/21 11:23:53;;;;;;;19.15;11.38;;;;;;;7.54;80.94;99585.91;5094736;28;20040;-63
2021/11/21 11:26:27;;;;;;;18.15;10.82;;;;;;;7.53;81.19;99584.19;5127504;27;20372;-63
2021/11/21 11:29:16;;;;;;;16.45;10.57;;;;;;;7.55;81.01;99571.31;5096872;28;20035;-64
2021/11/21 11:31:49;;;;;;;16.10;11.18;;;;;;;7.54;81.37;99570.44;5114829;28;20036;-63
2021/11/21 11:34:35;;;;;;;16.63;11.52;;;;;;;7.55;81.30;99569.56;5096546;28;20062;-62
2021/11/21 11:37:14;;;;;;;18.02;10.13;;;;;;;7.56;81.04;99573.91;5079230;28;20052;-64
2021/11/21 11:39:49;;;;;;;15.68;9.98;;;;;;;7.57;81.24;99580.78;5097029;28;20040;-64
2021/11/21 11:42:34;;;;;;;16.63;8.68;;;;;;;7.55;81.01;99573.88;5130840;27;20039;-64
2021/11/21 11:45:12;;;;;;;14.27;8.93;;;;;;;7.55;81.30;99572.16;5096424;28;20019;-64
2021/11/21 11:47:51;;;;;;;17.15;9.32;;;;;;;7.56;81.11;99578.19;5114706;28;20031;-63
2021/11/21 11:50:42;;;;;;;16.63;9.27;;;;;;;7.54;81.20;99570.44;5114666;28;20028;-62
2021/11/21 11:53:33;;;;;;;12.80;8.02;;;;;;;7.53;81.25;99576.44;5114462;28;20031;-62
2021/11/21 11:56:21;;;;;;;14.63;8.53;;;;;;;7.55;81.10;99581.63;5079913;28;20039;-63
2021/11/21 11:58:59;;;;;;;11.65;7.10;;;;;;;7.55;81.02;99582.47;5114662;28;20067;-62
2021/11/21 12:01:40;;;;;;;12.50;7.90;;;;;;;7.55;81.18;99584.19;5114344;28;20039;-62
2021/11/21 12:04:30;;;;;;;9.55;5.97;;;;;;;7.55;81.38;99592.78;5096535;28;20027;-63
2021/11/21 12:07:07;;;;;;;14.15;8.20;;;;;;;7.56;81.00;99594.53;5079695;28;20039;-62
2021/11/21 12:09:57;;;;;;;7.53;5.88;;;;;;;7.55;81.31;99587.63;5114193;28;20501;-63
2021/11/21 12:12:57;;;;;;;12.05;7.22;;;;;;;7.57;81.14;99596.28;5096163;28;20084;-62
2021/11/21 12:15:29;;;;;;;15.23;7.65;;;;;;;7.58;81.46;99586.84;5114322;28;20036;-62